METAR Data
IDs: Format: Raw Decoded Include TAF

Data at: 0934 UTC 28 Sep 2021

LFMO 280930Z AUTO 35008KT 320V020 CAVOK 21/12 Q1021 TEMPO 35015G25KT